createdAt,value
2023-01-15T00:02:07.688Z,1.33
2023-01-15T00:04:34.422Z,1.33
2023-01-15T00:07:01.286Z,1.03
2023-01-15T00:09:28.245Z,1.13
2023-01-15T00:11:55.189Z,1.23
2023-01-15T00:14:22.066Z,1.57
2023-01-15T00:16:52.584Z,1.30
2023-01-15T00:19:19.558Z,0.93
2023-01-15T00:21:46.466Z,1.10
2023-01-15T00:24:31.741Z,1.10
2023-01-15T00:27:16.987Z,1.43
2023-01-15T00:29:43.955Z,1.10
2023-01-15T00:32:10.889Z,0.90
2023-01-15T00:34:37.683Z,1.10
2023-01-15T00:37:04.393Z,1.20
2023-01-15T00:39:31.080Z,1.13
2023-01-15T00:41:57.847Z,1.30
2023-01-15T00:44:24.617Z,1.30
2023-01-15T00:46:51.314Z,1.37
2023-01-15T00:49:18.290Z,0.90
2023-01-15T00:51:45.079Z,0.90
2023-01-15T00:54:11.925Z,0.90
2023-01-15T00:56:38.732Z,0.90
2023-01-15T00:59:05.619Z,1.17
2023-01-15T01:01:33.072Z,0.90
2023-01-15T01:03:59.964Z,1.03
2023-01-15T01:06:27.144Z,0.90
2023-01-15T01:08:54.333Z,1.07
2023-01-15T01:11:25.067Z,1.00
2023-01-15T01:13:52.005Z,0.80
2023-01-15T01:16:21.687Z,1.07
2023-01-15T01:18:48.367Z,0.70
2023-01-15T01:21:15.092Z,1.37
2023-01-15T01:23:41.886Z,0.90
2023-01-15T01:26:08.566Z,0.90
2023-01-15T01:28:35.312Z,0.90
2023-01-15T01:31:05.948Z,0.60
2023-01-15T01:33:32.798Z,0.90
2023-01-15T01:35:59.539Z,0.80
2023-01-15T01:38:26.202Z,0.70
2023-01-15T01:40:53.377Z,1.03
2023-01-15T01:43:22.921Z,0.80
2023-01-15T01:45:49.763Z,0.83
2023-01-15T01:48:20.836Z,0.60
2023-01-15T01:50:49.796Z,0.70
2023-01-15T01:53:28.121Z,0.90
2023-01-15T01:55:57.339Z,0.80
2023-01-15T01:58:31.615Z,0.83
2023-01-15T02:01:00.326Z,0.80
2023-01-15T02:03:32.707Z,0.70
2023-01-15T02:06:02.968Z,0.80
2023-01-15T02:08:32.468Z,0.70
2023-01-15T02:10:59.348Z,0.60
2023-01-15T02:13:41.447Z,0.77
2023-01-15T02:16:48.553Z,0.80
2023-01-15T02:19:40.703Z,0.63
2023-01-15T02:22:23.940Z,0.60
2023-01-15T02:25:05.765Z,0.60
2023-01-15T02:27:33.373Z,0.67
2023-01-15T02:30:41.213Z,0.63
2023-01-15T02:33:36.605Z,0.50
2023-01-15T02:36:06.791Z,0.60
2023-01-15T02:38:38.647Z,0.80
2023-01-15T02:41:16.259Z,0.60
2023-01-15T02:43:46.841Z,0.70
2023-01-15T02:46:15.245Z,0.60
2023-01-15T02:48:46.382Z,0.87
2023-01-15T02:51:17.178Z,0.90
2023-01-15T02:53:48.515Z,0.90
2023-01-15T02:56:19.487Z,0.90
2023-01-15T02:58:49.951Z,1.40
2023-01-15T03:01:32.443Z,0.77
2023-01-15T03:04:10.015Z,1.10
2023-01-15T03:07:06.450Z,0.80
2023-01-15T03:09:34.010Z,1.23
2023-01-15T03:12:19.798Z,1.00
2023-01-15T03:14:59.085Z,1.10
2023-01-15T03:17:36.514Z,0.80
2023-01-15T03:20:12.248Z,1.03
2023-01-15T03:22:45.017Z,1.10
2023-01-15T03:25:16.229Z,1.00
2023-01-15T03:27:43.202Z,1.10
2023-01-15T03:30:14.464Z,1.13
2023-01-15T03:32:41.351Z,1.23
2023-01-15T03:35:29.150Z,1.20
2023-01-15T03:37:55.807Z,1.60
2023-01-15T03:40:22.783Z,1.70
2023-01-15T03:43:24.353Z,1.70
2023-01-15T03:45:55.380Z,1.60
2023-01-15T03:48:36.270Z,1.60
2023-01-15T03:51:39.438Z,2.17
2023-01-15T03:54:14.748Z,2.07
2023-01-15T03:56:55.805Z,1.77
2023-01-15T03:59:29.154Z,1.87
2023-01-15T04:01:57.869Z,1.87
2023-01-15T04:04:27.109Z,2.20
2023-01-15T04:06:55.188Z,2.03
2023-01-15T04:09:22.188Z,1.90
2023-01-15T04:11:48.887Z,1.87
2023-01-15T04:14:35.716Z,2.10
2023-01-15T04:17:22.363Z,1.70
2023-01-15T04:19:59.038Z,2.13
2023-01-15T04:22:45.891Z,2.13
2023-01-15T04:25:32.972Z,2.23
2023-01-15T04:28:03.735Z,2.20
2023-01-15T04:30:31.417Z,2.20
2023-01-15T04:32:58.574Z,2.03
2023-01-15T04:35:25.741Z,2.10
2023-01-15T04:37:57.281Z,2.40
2023-01-15T04:40:43.697Z,2.47
2023-01-15T04:43:30.656Z,2.17
2023-01-15T04:45:57.747Z,2.07
2023-01-15T04:48:25.116Z,2.10
2023-01-15T04:50:51.946Z,1.90
2023-01-15T04:53:18.693Z,1.70
2023-01-15T04:55:45.358Z,1.83
2023-01-15T04:58:12.069Z,2.67
2023-01-15T05:00:38.812Z,2.60
2023-01-15T05:03:05.458Z,2.43
2023-01-15T05:05:32.803Z,2.03
2023-01-15T05:07:59.523Z,1.70
2023-01-15T05:10:26.213Z,2.07
2023-01-15T05:12:53.007Z,1.87
2023-01-15T05:15:19.731Z,1.80
2023-01-15T05:17:46.590Z,2.00
2023-01-15T05:20:14.959Z,2.53
2023-01-15T05:22:41.731Z,1.70
2023-01-15T05:25:08.791Z,2.20
2023-01-15T05:27:35.597Z,2.50
2023-01-15T05:30:02.323Z,2.30
2023-01-15T05:32:30.786Z,1.90
2023-01-15T05:34:57.533Z,1.90
2023-01-15T05:37:24.167Z,2.20
2023-01-15T05:39:50.868Z,2.53
2023-01-15T05:42:17.662Z,1.90
2023-01-15T05:44:44.336Z,1.77
2023-01-15T05:47:11.114Z,2.20
2023-01-15T05:49:37.848Z,1.90
2023-01-15T05:52:04.730Z,1.70
2023-01-15T05:54:36.020Z,1.83
2023-01-15T05:57:03.934Z,2.17
2023-01-15T05:59:32.215Z,1.80
2023-01-15T06:01:59.848Z,2.33
2023-01-15T06:04:26.698Z,2.30
2023-01-15T06:06:54.712Z,2.10
2023-01-15T06:09:23.295Z,2.60
2023-01-15T06:11:50.878Z,2.13
2023-01-15T06:14:17.627Z,2.53
2023-01-15T06:16:44.543Z,2.03
2023-01-15T06:19:12.241Z,1.90
2023-01-15T06:21:39.154Z,1.80
2023-01-15T06:24:06.611Z,2.40
2023-01-15T06:26:33.623Z,2.07
2023-01-15T06:29:00.454Z,1.60
2023-01-15T06:31:27.466Z,1.73
2023-01-15T06:33:54.686Z,1.73
2023-01-15T06:36:23.619Z,2.13
2023-01-15T06:38:50.748Z,2.00
2023-01-15T06:41:39.322Z,2.27
2023-01-15T06:44:26.653Z,2.23
2023-01-15T06:47:13.525Z,2.00
2023-01-15T06:49:40.199Z,2.43
2023-01-15T06:52:07.433Z,2.80
2023-01-15T06:54:34.830Z,2.50
2023-01-15T06:57:01.822Z,2.30
2023-01-15T06:59:28.749Z,1.90
2023-01-15T07:01:55.662Z,2.57
2023-01-15T07:04:22.480Z,2.50
2023-01-15T07:06:49.262Z,2.37
2023-01-15T07:09:15.942Z,2.37
2023-01-15T07:11:51.286Z,2.37
2023-01-15T07:14:28.078Z,2.37
2023-01-15T07:16:55.767Z,2.27
2023-01-15T07:19:22.486Z,2.17
2023-01-15T07:21:49.202Z,2.40
2023-01-15T07:24:16.977Z,2.43
2023-01-15T07:26:44.203Z,2.27
2023-01-15T07:29:12.021Z,2.20
2023-01-15T07:31:38.957Z,2.20
2023-01-15T07:34:05.660Z,2.67
2023-01-15T07:36:32.650Z,2.37
2023-01-15T07:38:59.440Z,2.30
2023-01-15T07:41:44.713Z,2.13
2023-01-15T07:44:30.547Z,2.20
2023-01-15T07:47:16.072Z,1.90
2023-01-15T07:49:46.733Z,2.40
2023-01-15T07:52:15.059Z,2.10
2023-01-15T07:54:42.072Z,2.40
2023-01-15T07:57:09.322Z,2.30
2023-01-15T07:59:36.116Z,2.40
2023-01-15T08:02:03.108Z,2.33
2023-01-15T08:04:31.525Z,3.00
2023-01-15T08:07:03.131Z,2.00
2023-01-15T08:09:30.940Z,2.10
2023-01-15T08:12:20.940Z,2.80
2023-01-15T08:15:06.052Z,2.40
2023-01-15T08:17:34.973Z,2.50
2023-01-15T08:20:04.319Z,2.87
2023-01-15T08:22:31.471Z,2.60
2023-01-15T08:24:58.204Z,3.07
2023-01-15T08:27:24.927Z,2.70
2023-01-15T08:29:52.371Z,2.70
2023-01-15T08:32:19.169Z,2.90
2023-01-15T08:34:45.920Z,2.30
2023-01-15T08:37:12.603Z,2.13
2023-01-15T08:39:39.326Z,2.30
2023-01-15T08:42:06.054Z,2.60
2023-01-15T08:44:33.715Z,2.87
2023-01-15T08:47:00.546Z,2.30
2023-01-15T08:49:27.284Z,2.43
2023-01-15T08:51:53.932Z,2.40
2023-01-15T08:54:22.160Z,2.93
2023-01-15T08:56:49.983Z,2.43
2023-01-15T08:59:16.945Z,2.90
2023-01-15T09:01:44.844Z,2.53
2023-01-15T09:04:16.215Z,2.30
2023-01-15T09:06:43.454Z,2.23
2023-01-15T09:09:11.506Z,2.60
2023-01-15T09:11:42.894Z,3.00
2023-01-15T09:14:59.253Z,2.53
2023-01-15T09:16:59.501Z,2.53
2023-01-15T09:19:26.233Z,2.00
2023-01-15T09:21:52.932Z,2.27
2023-01-15T09:24:19.658Z,2.10
2023-01-15T09:26:46.614Z,2.43
2023-01-15T09:29:13.347Z,2.83
2023-01-15T09:31:40.091Z,2.73
2023-01-15T09:34:06.844Z,2.10
2023-01-15T09:36:35.546Z,2.13
2023-01-15T09:39:04.340Z,2.30
2023-01-15T09:41:58.739Z,1.93
2023-01-15T09:44:39.665Z,2.07
2023-01-15T09:47:20.330Z,2.90
2023-01-15T09:50:11.363Z,2.03
2023-01-15T09:52:50.059Z,2.07
2023-01-15T09:55:28.676Z,2.17
2023-01-15T09:57:59.611Z,1.97
2023-01-15T10:00:30.086Z,1.80
2023-01-15T10:03:07.632Z,2.00
2023-01-15T10:05:40.649Z,2.07
2023-01-15T10:08:30.893Z,2.20
2023-01-15T10:11:16.417Z,1.70
2023-01-15T10:13:54.902Z,1.50
2023-01-15T10:16:25.722Z,1.70
2023-01-15T10:18:53.473Z,2.13
2023-01-15T10:21:44.990Z,2.10
2023-01-15T10:24:17.915Z,1.83
2023-01-15T10:26:54.133Z,1.93
2023-01-15T10:29:46.936Z,1.97
2023-01-15T10:33:02.067Z,1.87
2023-01-15T10:35:37.126Z,1.70
2023-01-15T10:38:23.909Z,2.17
2023-01-15T10:40:53.559Z,1.70
2023-01-15T10:43:44.765Z,2.00
2023-01-15T10:46:14.602Z,1.90
2023-01-15T10:48:50.515Z,2.07
2023-01-15T10:51:27.163Z,2.00
2023-01-15T10:54:07.983Z,1.80
2023-01-15T10:56:40.488Z,2.17
2023-01-15T10:59:16.736Z,1.90
2023-01-15T11:01:44.000Z,2.23
2023-01-15T11:04:13.858Z,1.80
2023-01-15T11:06:41.241Z,2.00
2023-01-15T11:09:22.678Z,1.73
2023-01-15T11:12:01.388Z,2.10
2023-01-15T11:14:57.243Z,1.70
2023-01-15T11:17:47.078Z,1.47
2023-01-15T11:20:18.278Z,2.27
2023-01-15T11:22:45.234Z,1.40
2023-01-15T11:25:12.054Z,1.50
2023-01-15T11:27:39.468Z,1.70
2023-01-15T11:30:07.993Z,1.77
2023-01-15T11:32:37.101Z,1.63
2023-01-15T11:35:18.427Z,1.60
2023-01-15T11:37:45.266Z,1.60
2023-01-15T11:40:21.185Z,1.47
2023-01-15T11:43:07.471Z,1.90
2023-01-15T11:45:52.628Z,1.60
2023-01-15T11:48:40.918Z,1.60
2023-01-15T11:51:14.726Z,1.83
2023-01-15T11:53:46.487Z,1.43
2023-01-15T11:56:20.814Z,1.50
2023-01-15T11:58:51.120Z,1.50
2023-01-15T12:01:32.195Z,1.60
2023-01-15T12:04:01.423Z,1.60
2023-01-15T12:06:29.988Z,1.70
2023-01-15T12:09:29.149Z,1.50
2023-01-15T12:12:10.841Z,1.67
2023-01-15T12:14:49.692Z,1.80
2023-01-15T12:17:32.593Z,2.13
2023-01-15T12:20:08.145Z,1.30
2023-01-15T12:22:56.307Z,1.50
2023-01-15T12:25:32.160Z,1.40
2023-01-15T12:28:24.535Z,1.67
2023-01-15T12:30:55.103Z,1.40
2023-01-15T12:33:28.148Z,1.77
2023-01-15T12:36:24.579Z,1.70
2023-01-15T12:39:01.682Z,1.77
2023-01-15T12:41:48.342Z,1.70
2023-01-15T12:44:46.101Z,1.63
2023-01-15T12:47:18.826Z,1.60
2023-01-15T12:49:53.519Z,1.70
2023-01-15T12:52:24.912Z,1.40
2023-01-15T12:54:57.858Z,1.50
2023-01-15T12:57:34.486Z,1.83
2023-01-15T13:00:08.239Z,1.73
2023-01-15T13:03:12.456Z,1.60
2023-01-15T13:05:48.602Z,2.00
2023-01-15T13:08:22.977Z,1.50
2023-01-15T13:10:50.905Z,1.60
2023-01-15T13:13:24.734Z,2.03
2023-01-15T13:16:00.275Z,1.70
2023-01-15T13:18:40.776Z,1.53
2023-01-15T13:21:14.277Z,1.50
2023-01-15T13:23:40.936Z,1.33
2023-01-15T13:26:16.361Z,2.20
2023-01-15T13:28:58.913Z,1.60
2023-01-15T13:31:48.256Z,2.10
2023-01-15T13:34:31.326Z,1.60
2023-01-15T13:37:12.605Z,1.50
2023-01-15T13:39:43.845Z,2.50
2023-01-15T13:42:33.737Z,1.60
2023-01-15T13:45:19.883Z,1.40
2023-01-15T13:47:52.968Z,1.73
2023-01-15T13:50:28.918Z,1.60
2023-01-15T13:53:23.385Z,1.70
2023-01-15T13:55:56.386Z,1.57
2023-01-15T13:58:26.955Z,1.77
2023-01-15T14:01:22.556Z,1.37
2023-01-15T14:04:05.073Z,2.17
2023-01-15T14:06:41.110Z,1.57
2023-01-15T14:09:29.577Z,1.60
2023-01-15T14:12:27.740Z,1.90
2023-01-15T14:15:00.309Z,1.97
2023-01-15T14:17:48.746Z,1.50
2023-01-15T14:20:51.630Z,1.97
2023-01-15T14:23:21.011Z,2.10
2023-01-15T14:26:15.158Z,1.30
2023-01-15T14:28:59.409Z,1.63
2023-01-15T14:31:59.610Z,1.40
2023-01-15T14:34:30.323Z,1.70
2023-01-15T14:37:26.637Z,1.63
2023-01-15T14:40:00.134Z,1.70
2023-01-15T14:42:54.558Z,1.67
2023-01-15T14:45:28.785Z,1.40
2023-01-15T14:48:00.561Z,1.43
2023-01-15T14:50:33.753Z,1.40
2023-01-15T14:53:15.492Z,1.70
2023-01-15T14:56:04.035Z,1.40
2023-01-15T14:58:49.481Z,1.47
2023-01-15T15:01:52.827Z,1.30
2023-01-15T15:04:34.102Z,1.70
2023-01-15T15:07:04.231Z,1.40
2023-01-15T15:09:40.004Z,1.40
2023-01-15T15:12:25.074Z,1.50
2023-01-15T15:15:20.041Z,1.60
2023-01-15T15:18:15.866Z,1.60
2023-01-15T15:20:47.658Z,1.50
2023-01-15T15:23:40.187Z,1.43
2023-01-15T15:26:18.435Z,1.80
2023-01-15T15:28:57.967Z,1.90
2023-01-15T15:31:28.069Z,1.70
2023-01-15T15:33:56.923Z,1.53
2023-01-15T15:36:28.207Z,1.60
2023-01-15T15:39:00.248Z,1.57
2023-01-15T15:41:50.758Z,1.67
2023-01-15T15:45:02.195Z,1.87
2023-01-15T15:47:55.934Z,2.13
2023-01-15T15:50:25.882Z,1.73
2023-01-15T15:52:53.184Z,1.40
2023-01-15T15:55:21.838Z,1.47
2023-01-15T15:57:57.209Z,1.50
2023-01-15T16:00:33.810Z,1.47
2023-01-15T16:03:07.492Z,1.30
2023-01-15T16:05:35.032Z,1.70
2023-01-15T16:08:18.274Z,2.00
2023-01-15T16:10:48.156Z,1.43
2023-01-15T16:13:23.325Z,1.60
2023-01-15T16:15:55.900Z,2.27
2023-01-15T16:18:27.394Z,1.57
2023-01-15T16:20:56.161Z,1.53
2023-01-15T16:23:28.929Z,1.80
2023-01-15T16:26:19.771Z,1.40
2023-01-15T16:28:53.790Z,1.80
2023-01-15T16:31:23.090Z,1.67
2023-01-15T16:33:56.816Z,1.60
2023-01-15T16:36:24.774Z,1.60
2023-01-15T16:38:52.643Z,1.63
2023-01-15T16:41:29.674Z,1.70
2023-01-15T16:44:00.407Z,1.40
2023-01-15T16:46:31.934Z,1.37
2023-01-15T16:49:23.240Z,1.40
2023-01-15T16:51:54.929Z,1.30
2023-01-15T16:54:30.988Z,1.70
2023-01-15T16:57:37.422Z,1.50
2023-01-15T17:00:07.462Z,2.00
2023-01-15T17:02:42.865Z,1.70
2023-01-15T17:05:22.066Z,1.70
2023-01-15T17:07:52.069Z,1.70
2023-01-15T17:10:22.145Z,1.30
2023-01-15T17:12:50.412Z,2.00
2023-01-15T17:15:17.737Z,1.50
2023-01-15T17:17:46.576Z,1.60
2023-01-15T17:20:15.273Z,1.83
2023-01-15T17:22:45.117Z,1.20
2023-01-15T17:25:35.297Z,1.63
2023-01-15T17:28:04.429Z,1.40
2023-01-15T17:30:33.133Z,1.40
2023-01-15T17:33:07.160Z,1.50
2023-01-15T17:35:36.429Z,2.00
2023-01-15T17:38:04.912Z,1.80
2023-01-15T17:40:32.786Z,1.60
2023-01-15T17:42:59.608Z,1.73
2023-01-15T17:45:28.812Z,1.30
2023-01-15T17:47:55.713Z,1.70
2023-01-15T17:50:23.343Z,1.57
2023-01-15T17:52:51.099Z,1.70
2023-01-15T17:55:39.363Z,1.70
2023-01-15T17:58:25.127Z,1.67
2023-01-15T18:01:11.929Z,1.90
2023-01-15T18:04:04.674Z,1.70
2023-01-15T18:06:31.970Z,1.50
2023-01-15T18:09:01.610Z,2.27
2023-01-15T18:11:28.397Z,1.40
2023-01-15T18:13:56.130Z,1.70
2023-01-15T18:16:23.467Z,1.30
2023-01-15T18:18:52.895Z,1.63
2023-01-15T18:21:20.839Z,1.30
2023-01-15T18:23:47.600Z,1.33
2023-01-15T18:26:14.615Z,1.73
2023-01-15T18:28:41.840Z,1.40
2023-01-15T18:31:08.595Z,1.90
2023-01-15T18:33:35.407Z,1.80
2023-01-15T18:36:10.152Z,1.50
2023-01-15T18:38:38.994Z,2.00
2023-01-15T18:41:11.811Z,1.80
2023-01-15T18:43:57.829Z,1.67
2023-01-15T18:46:43.428Z,2.00
2023-01-15T18:49:10.275Z,1.73
2023-01-15T18:51:37.047Z,1.90
2023-01-15T18:54:06.333Z,2.60
2023-01-15T18:56:39.625Z,3.07
2023-01-15T18:59:08.625Z,2.67
2023-01-15T19:01:36.666Z,3.07
2023-01-15T19:04:07.392Z,2.83
2023-01-15T19:06:34.952Z,2.60
2023-01-15T19:09:02.337Z,2.30
2023-01-15T19:11:29.603Z,1.97
2023-01-15T19:14:15.368Z,1.47
2023-01-15T19:17:01.164Z,1.50
2023-01-15T19:19:28.366Z,1.80
2023-01-15T19:22:14.138Z,1.37
2023-01-15T19:24:40.977Z,1.70
2023-01-15T19:27:07.743Z,1.73
2023-01-15T19:29:34.669Z,1.40
2023-01-15T19:32:04.469Z,1.80
2023-01-15T19:34:34.488Z,1.60
2023-01-15T19:37:01.666Z,1.50
2023-01-15T19:39:29.636Z,1.60
2023-01-15T19:42:15.778Z,1.80
2023-01-15T19:45:01.924Z,1.93
2023-01-15T19:47:52.397Z,2.17
2023-01-15T19:50:23.061Z,1.80
2023-01-15T19:52:53.845Z,1.70
2023-01-15T19:55:22.937Z,2.50
2023-01-15T19:57:57.416Z,1.70
2023-01-15T20:00:25.071Z,2.40
2023-01-15T20:02:51.972Z,1.63
2023-01-15T20:05:20.745Z,1.97
2023-01-15T20:07:47.668Z,1.63
2023-01-15T20:10:20.414Z,1.93
2023-01-15T20:13:05.667Z,1.70
2023-01-15T20:15:33.193Z,1.77
2023-01-15T20:17:59.953Z,1.80
2023-01-15T20:20:26.776Z,1.90
2023-01-15T20:22:57.757Z,1.40
2023-01-15T20:25:28.119Z,1.83
2023-01-15T20:27:56.893Z,1.53
2023-01-15T20:30:24.490Z,1.83
2023-01-15T20:32:53.307Z,2.00
2023-01-15T20:35:23.309Z,1.90
2023-01-15T20:37:51.252Z,1.63
2023-01-15T20:40:23.428Z,2.23
2023-01-15T20:43:09.224Z,1.80
2023-01-15T20:45:36.255Z,1.73
2023-01-15T20:48:13.278Z,2.07
2023-01-15T20:51:16.893Z,1.37
2023-01-15T20:53:43.763Z,1.63
2023-01-15T20:56:15.016Z,1.67
2023-01-15T20:58:44.607Z,1.63
2023-01-15T21:01:15.695Z,1.50
2023-01-15T21:03:47.342Z,1.90
2023-01-15T21:06:14.208Z,1.60
2023-01-15T21:08:42.495Z,1.57
2023-01-15T21:11:09.383Z,1.57
2023-01-15T21:13:36.621Z,1.40
2023-01-15T21:16:05.524Z,1.60
2023-01-15T21:18:35.668Z,1.50
2023-01-15T21:21:09.015Z,1.50
2023-01-15T21:23:35.718Z,1.30
2023-01-15T21:26:02.478Z,1.30
2023-01-15T21:28:30.802Z,1.60
2023-01-15T21:30:58.467Z,1.60
2023-01-15T21:33:25.322Z,1.57
2023-01-15T21:35:52.005Z,1.63
2023-01-15T21:38:18.799Z,1.77
2023-01-15T21:40:45.523Z,1.93
2023-01-15T21:43:30.702Z,1.53
2023-01-15T21:46:05.377Z,1.90
2023-01-15T21:48:32.682Z,1.87
2023-01-15T21:51:03.182Z,1.37
2023-01-15T21:53:29.855Z,1.53
2023-01-15T21:55:56.675Z,1.73
2023-01-15T21:58:23.505Z,1.60
2023-01-15T22:00:50.307Z,1.40
2023-01-15T22:03:18.061Z,1.70
2023-01-15T22:05:45.551Z,1.60
2023-01-15T22:08:12.414Z,1.80
2023-01-15T22:10:39.615Z,2.17
2023-01-15T22:13:06.454Z,1.67
2023-01-15T22:15:33.236Z,1.70
2023-01-15T22:18:00.414Z,1.60
2023-01-15T22:20:27.184Z,2.03
2023-01-15T22:22:53.929Z,1.70
2023-01-15T22:25:20.742Z,2.10
2023-01-15T22:27:47.478Z,1.73
2023-01-15T22:30:15.777Z,1.60
2023-01-15T22:32:42.899Z,1.60
2023-01-15T22:35:09.869Z,1.80
2023-01-15T22:37:36.643Z,2.03
2023-01-15T22:40:04.777Z,1.67
2023-01-15T22:42:33.067Z,1.93
2023-01-15T22:45:00.673Z,1.63
2023-01-15T22:47:29.383Z,1.60
2023-01-15T22:49:56.799Z,1.70
2023-01-15T22:52:25.704Z,1.50
2023-01-15T22:54:53.005Z,1.47
2023-01-15T22:57:20.456Z,1.90
2023-01-15T22:59:47.818Z,1.37
2023-01-15T23:02:15.061Z,1.83
2023-01-15T23:04:42.232Z,1.70
2023-01-15T23:07:09.998Z,1.67
2023-01-15T23:09:36.741Z,1.70
2023-01-15T23:12:03.621Z,1.40
2023-01-15T23:14:30.768Z,1.67
2023-01-15T23:16:57.482Z,1.60
2023-01-15T23:19:26.750Z,1.70
2023-01-15T23:21:53.496Z,1.70
2023-01-15T23:24:20.284Z,1.70
2023-01-15T23:26:47.443Z,1.73
2023-01-15T23:29:14.155Z,1.40
2023-01-15T23:31:40.908Z,1.57
2023-01-15T23:34:07.878Z,1.80
2023-01-15T23:36:34.679Z,1.77
2023-01-15T23:39:01.349Z,1.60
2023-01-15T23:41:46.739Z,1.80
2023-01-15T23:44:38.179Z,1.80
2023-01-15T23:47:07.007Z,1.40
2023-01-15T23:49:34.083Z,1.37
2023-01-15T23:52:01.077Z,1.70
2023-01-15T23:54:30.189Z,1.33
2023-01-15T23:57:01.311Z,1.63
2023-01-15T23:59:28.817Z,1.47
